Four Corners Regional Airport
KFMN : now visible

Airfield :











YOU CAN JOIN US ON...

 
LOGIN :

Register | Disclaimer

   EN    FR    IT 

 









Legend :    VFR   Marginal VFR   IFR   Intensive IFR   Very Intensive IFR
Visi :
Ceiling :
>= 8 km
>= 3000ft
5 to 8 km
1000 to 3000 ft
1500m to 5 km
500 to 1000 ft
800 to 1500m
200 to 500 ft
< 800m
< 200 ft
Symbols :   Thunderstorms  Fog  Heavy snow  Heavy precipitations  Wind > 20 kt






- Airport Elevation : 5506 ft


KFMN - Four Corners Regional

CURRENT METAR :
  • 021553Z 12005KT 10SM CLR 23/13 A3016 RMK AO2 SLP155 T02330133

EXPIRED METARs :
  • 021453Z 12008KT 10SM CLR 21/13 A3017 RMK AO2 SLP161 T02110133 51004
  • 020314Z 11014KT 10SM VCTS FEW050 SCT075 SCT090 19/14 A3012 RMK AO2 WSHFT 0254 RAE0254 P0000 T01940144
  • 021353Z 07009KT 10SM CLR 20/12 A3017 RMK AO2 SLP148 T02000117

TAF KFMN
Valid from the 02 at 12:00 until the 03 at 12:00 UTC


021134Z 0212/0312 09006KT P6SM FEW120
FM021800 23008KT P6SM SCT110
FM030000 16010KT P6SM VCTS BKN100CB
FM030300 11010KT P6SM VCSH BKN100
KZDV FIR / North America



MET'MAP, your aeronautical weather chart ! - Copyright ORBIFLY December 2007 - Disclaimer

ORBIFLY MET'MAP TEAM :

Programming & Development : Alexandra Zaïnal
Original concept : Baudouin d'Aumeries
Technical & hardware support : Manuel Goepfert
Assistance : Marc-Olivier Méhu




SOURCES & CREDITS :

   NOAA       Earth
Advisory